Time;durP1;ratioP1;P1;durP2;ratioP2;P2;SDS_P1;SDS_P2;PMS_P1;PMS_P2;Temp;Humidity;BMP_temperature;BMP_pressure;BME280_temperature;BME280_humidity;BME280_pressure;Samples;Min_cycle;Max_cycle;Signal;HPM_P1;HPM_P2
2024/04/17 00:03:19;;;;;;;;;;;;;;;;;;;;;
2024/04/17 00:07:15;;;;;;;4.70;2.90;;;;;;;4.34;68.26;98850.34;129376;1284;114759;-63
2024/04/17 00:11:07;;;;;;;;;;;;;;;;;;;;;
2024/04/17 00:14:43;;;;;;;;;;;;;;;;;;;;;
2024/04/17 00:18:25;;;;;;;3.20;2.20;;;;;;;4.24;69.09;98859.29;128571;1277;130967;-63
2024/04/17 00:21:57;;;;;;;3.40;1.70;;;;;;;4.21;69.12;98862.26;128464;1292;114737;-63
2024/04/17 00:25:57;;;;;;;4.30;2.40;;;;;;;4.17;69.31;98861.90;128481;1292;114958;-62
2024/04/17 00:29:52;;;;;;;4.20;1.70;;;;;;;4.12;69.30;98863.19;128586;1275;114764;-62
2024/04/17 00:33:19;;;;;;;3.90;2.40;;;;;;;4.07;69.70;98860.41;128313;1273;114965;-63
2024/04/17 00:37:01;;;;;;;4.60;1.90;;;;;;;4.03;69.82;98859.55;127932;1290;128415;-63
2024/04/17 00:40:43;;;;;;;;;;;;;;;;;;;;;
2024/04/17 00:44:38;;;;;;;;;;;;;;;;;;;;;
2024/04/17 00:48:40;;;;;;;;;;;;;;;;;;;;;
2024/04/17 00:52:26;;;;;;;3.70;2.60;;;;;;;3.88;71.00;98862.49;129397;1280;114737;-63
2024/04/17 00:56:06;;;;;;;;;;;;;;;;;;;;;
2024/04/17 01:00:02;;;;;;;4.00;2.00;;;;;;;3.90;71.71;98859.04;129465;1264;114800;-62
2024/04/17 01:03:31;;;;;;;;;;;;;;;;;;;;;
2024/04/17 01:07:26;;;;;;;3.50;2.60;;;;;;;4.02;72.11;98856.39;128618;1288;114839;-62
2024/04/17 01:10:53;;;;;;;5.60;2.60;;;;;;;4.10;72.46;98860.27;128574;1288;114921;-63
2024/04/17 01:14:53;;;;;;;4.20;2.10;;;;;;;4.18;72.41;98861.30;129053;1278;128859;-63
2024/04/17 01:18:47;;;;;;;3.90;2.20;;;;;;;4.29;72.52;98860.11;128796;1290;114919;-63
2024/04/17 01:22:38;;;;;;;4.10;2.00;;;;;;;4.37;72.76;98869.42;127950;1297;114873;-62
2024/04/17 01:26:18;;;;;;;4.70;2.90;;;;;;;4.42;72.81;98866.71;127651;1284;114930;-62
2024/04/17 01:29:34;;;;;;;;;;;;;;;;;;;;;
2024/04/17 01:33:04;;;;;;;3.30;2.00;;;;;;;4.52;72.84;98870.68;128293;1289;129942;-62
2024/04/17 01:37:03;;;;;;;3.80;2.10;;;;;;;4.59;72.84;98871.61;128410;1296;114938;-63
2024/04/17 01:40:41;;;;;;;4.80;2.70;;;;;;;4.67;73.15;98871.91;127002;1286;114854;-62
2024/04/17 01:44:15;;;;;;;;;;;;;;;;;;;;;
2024/04/17 01:48:05;;;;;;;;;;;;;;;;;;;;;
2024/04/17 01:51:39;;;;;;;2.40;1.50;;;;;;;4.91;73.13;98872.70;126682;1289;130366;-63
2024/04/17 01:55:20;;;;;;;4.40;2.20;;;;;;;4.93;72.83;98877.91;126866;1287;114876;-63
2024/04/17 01:59:12;;;;;;;3.60;2.30;;;;;;;4.89;72.86;98876.30;126974;1303;114907;-63
2024/04/17 02:02:52;;;;;;;;;;;;;;;;;;;;;
2024/04/17 02:07:03;;;;;;;4.10;2.50;;;;;;;4.82;72.43;98884.83;126505;1295;636142;-63
2024/04/17 02:10:37;;;;;;;;;;;;;;;;;;;;;
2024/04/17 02:14:25;;;;;;;;;;;;;;;;;;;;;
2024/04/17 02:18:14;;;;;;;4.70;2.40;;;;;;;4.63;72.29;98893.13;127812;1281;114953;-63
2024/04/17 02:21:49;;;;;;;5.00;3.50;;;;;;;4.57;72.15;98893.77;123569;1299;115381;-63
2024/04/17 02:24:59;;;;;;;3.10;2.70;;;;;;;4.50;72.40;98901.52;127258;1286;114827;-62
2024/04/17 02:28:59;;;;;;;4.20;2.50;;;;;;;4.46;72.61;98900.67;127437;1304;114955;-62
2024/04/17 02:33:01;;;;;;;4.40;2.40;;;;;;;4.43;72.63;98900.45;127327;1285;128561;-62
2024/04/17 02:36:48;;;;;;;4.20;2.60;;;;;;;4.44;72.93;98901.48;125992;1299;115060;-62
2024/04/17 02:40:22;;;;;;;;;;;;;;;4.47;73.11;98910.70;126078;1316;114986;-63
2024/04/17 02:44:19;;;;;;;;;;;;;;;;;;;;;
2024/04/17 02:48:08;;;;;;;;;;;;;;;;;;;;;
2024/04/17 02:51:44;;;;;;;2.30;1.60;;;;;;;4.70;73.02;98920.77;125422;1297;129844;-63
2024/04/17 02:55:39;;;;;;;;;;;;;;;;;;;;;
2024/04/17 03:03:36;;;;;;;2.30;1.90;;;;;;;4.94;72.74;98933.39;126422;1306;636062;-63
2024/04/17 03:07:30;;;;;;;;;;;;;;;;;;;;;
2024/04/17 03:11:39;;;;;;;4.50;1.60;;;;;;;5.04;72.27;98938.25;127307;1287;115088;-63
2024/04/17 03:15:32;;;;;;;1.90;1.20;;;;;;;5.09;72.37;98935.32;122296;1313;5433811;-62
2024/04/17 03:19:17;;;;;;;1.60;1.10;;;;;;;5.12;71.86;98938.00;125571;1321;114776;-64
2024/04/17 03:27:24;;;;;;;2.90;1.20;;;;;;;5.25;71.67;98944.98;126700;1289;636376;-64
2024/04/17 03:30:40;;;;;;;2.10;1.10;;;;;;;5.28;71.52;98943.79;128270;1297;128483;-63
2024/04/17 03:34:36;;;;;;;2.40;1.30;;;;;;;5.31;71.41;98945.57;128355;1276;114872;-64
2024/04/17 03:38:16;;;;;;;;;;;;;;;;;;;;;
2024/04/17 03:42:19;;;;;;;1.90;1.10;;;;;;;5.39;71.30;98949.96;124301;1278;5397903;-63
2024/04/17 03:46:26;;;;;;;1.70;1.00;;;;;;;5.43;71.27;98957.92;127345;1294;114744;-62
2024/04/17 03:49:47;;;;;;;2.60;1.50;;;;;;;5.44;71.07;98962.09;126261;1311;114945;-63
2024/04/17 03:53:31;;;;;;;;;;;;;;;;;;;;;
2024/04/17 03:57:06;;;;;;;3.00;1.20;;;;;;;5.51;71.14;98975.42;126573;1295;114782;-63
2024/04/17 04:00:51;;;;;;;2.50;1.30;;;;;;;5.51;71.00;98976.47;126291;1315;114896;-64
2024/04/17 04:04:43;;;;;;;;;;;;;;;;;;;;;
2024/04/17 04:08:44;;;;;;;4.20;1.40;;;;;;;5.55;71.00;98979.45;125176;1318;114846;-63
2024/04/17 04:12:40;;;;;;;;;;;;;;;;;;;;;
2024/04/17 04:16:26;;;;;;;2.60;1.10;;;;;;;5.55;70.87;98989.87;125297;1307;114968;-64
2024/04/17 04:19:52;;;;;;;3.40;1.80;;;;;;;5.57;70.98;98998.67;125615;1323;114914;-64
2024/04/17 04:23:30;;;;;;;2.50;1.50;;;;;;;5.58;70.96;98998.77;125207;1304;114835;-64
2024/04/17 04:27:10;;;;;;;;;;;;;;;;;;;;;
2024/04/17 04:30:58;;;;;;;2.40;1.80;;;;;;;5.60;71.14;99006.29;125653;1320;130200;-62
2024/04/17 04:34:50;;;;;;;3.80;1.90;;;;;;;5.61;71.27;99013.67;124873;1311;115156;-62
2024/04/17 04:38:32;;;;;;;3.50;2.10;;;;;;;5.59;71.45;99017.69;125036;1302;114924;-63
2024/04/17 04:42:25;;;;;;;3.70;2.30;;;;;;;5.60;71.95;99025.26;125187;1302;115077;-62
2024/04/17 04:46:19;;;;;;;5.00;2.50;;;;;;;5.61;72.03;99026.44;125468;1318;114991;-64
2024/04/17 04:50:03;;;;;;;;;;;;;;;;;;;;;
2024/04/17 04:54:05;;;;;;;4.80;2.20;;;;;;;5.67;72.10;99030.22;125735;1318;114966;-63
2024/04/17 04:57:39;;;;;;;;;;;;;;;;;;;;;
2024/04/17 05:01:20;;;;;;;3.80;2.50;;;;;;;5.71;72.82;99029.69;124376;1328;114863;-65
2024/04/17 05:05:15;;;;;;;;;;;;;;;;;;;;;
2024/04/17 05:09:27;;;;;;;;;;;;;;;;;;;;;
2024/04/17 05:13:32;;;;;;;5.50;3.10;;;;;;;5.75;73.91;99031.07;128809;1273;128941;-63
2024/04/17 05:17:16;;;;;;;;;;;;;;;;;;;;;
2024/04/17 05:21:10;;;;;;;;;;;;;;;;;;;;;
2024/04/17 05:24:59;;;;;;;4.70;2.70;;;;;;;5.84;74.79;99036.47;123082;1310;114792;-62
2024/04/17 05:28:41;;;;;;;3.90;2.50;;;;;;;5.86;74.97;99036.33;126481;1309;114858;-63
2024/04/17 05:32:17;;;;;;;6.40;2.80;;;;;;;5.89;75.28;99039.01;126095;1315;114967;-63
2024/04/17 05:35:47;;;;;;;3.70;2.60;;;;;;;5.94;75.65;99041.48;125921;1299;130080;-63
2024/04/17 05:39:30;;;;;;;4.70;2.80;;;;;;;5.98;75.81;99041.08;126225;1299;115000;-64
2024/04/17 05:43:24;;;;;;;6.30;3.10;;;;;;;5.99;75.55;99041.39;125807;1300;114933;-64
2024/04/17 05:47:24;;;;;;;3.60;2.60;;;;;;;6.00;75.84;99047.54;125966;1307;114878;-65
2024/04/17 05:51:24;;;;;;;3.70;2.50;;;;;;;6.00;75.87;99052.52;125661;1302;115128;-68
2024/04/17 05:55:26;;;;;;;4.50;2.30;;;;;;;6.02;76.13;99052.41;126127;1314;129732;-67
2024/04/17 05:59:19;;;;;;;;;;;;;;;;;;;;;
2024/04/17 06:03:02;;;;;;;4.80;2.90;;;;;;;6.11;76.13;99046.86;125572;1314;115142;-70
2024/04/17 06:07:04;;;;;;;3.70;2.70;;;;;;;6.15;76.44;99051.27;125579;1315;114980;-68
2024/04/17 06:10:47;;;;;;;;;;;;;;;;;;;;;
2024/04/17 06:14:30;;;;;;;3.70;2.20;;;;;;;6.19;76.35;99058.11;125529;1318;128906;-68
2024/04/17 06:18:32;;;;;;;3.90;2.40;;;;;;;6.25;76.73;99062.27;125619;1315;114987;-70
2024/04/17 06:26:21;;;;;;;4.40;3.20;;;;;;;6.38;76.76;99070.80;126218;1297;637244;-69
2024/04/17 06:29:55;;;;;;;3.50;2.70;;;;;;;6.41;77.09;99075.06;127780;1281;128971;-68
2024/04/17 06:33:52;;;;;;;;;;;;;;;;;;;;;
2024/04/17 06:38:08;;;;;;;5.00;3.40;;;;;;;6.39;77.21;99076.94;126356;1299;114959;-69
2024/04/17 06:42:06;;;;;;;5.00;3.60;;;;;;;6.42;77.21;99073.11;124071;1296;115157;-68
2024/04/17 06:45:10;;;;;;;4.70;3.40;;;;;;;6.45;77.54;99081.94;124877;1313;115077;-68
2024/04/17 06:48:40;;;;;;;5.60;3.80;;;;;;;6.51;77.66;99083.25;124860;1308;116437;-67
2024/04/17 06:57:06;;;;;;;6.40;4.30;;;;;;;6.68;77.68;99090.32;126111;1296;636712;-68
2024/04/17 07:00:42;;;;;;;;;;;;;;;;;;;;;
2024/04/17 07:04:36;;;;;;;;;;;;;;;;;;;;;
2024/04/17 07:08:27;;;;;;;7.10;4.80;;;;;;;6.84;78.06;99097.30;127596;1285;114877;-69
2024/04/17 07:12:20;;;;;;;;;;;;;;;;;;;;;
2024/04/17 07:16:01;;;;;;;;;;;;;;;;;;;;;
2024/04/17 07:19:31;;;;;;;;;;;;;;;;;;;;;
2024/04/17 07:23:39;;;;;;;;;;;;;;;;;;;;;
2024/04/17 07:27:45;;;;;;;4.50;3.10;;;;;;;7.02;78.00;99102.92;125887;1300;114969;-69
2024/04/17 07:31:28;;;;;;;4.00;2.30;;;;;;;7.14;78.18;99103.83;125805;1302;114879;-68
2024/04/17 07:35:22;;;;;;;2.80;2.30;;;;;;;7.27;78.13;99107.58;125976;1303;115337;-68
2024/04/17 07:39:22;;;;;;;4.40;3.20;;;;;;;7.41;78.19;99103.98;125733;1298;117742;-67
2024/04/17 07:43:22;;;;;;;;;;;;;;;;;;;;;
2024/04/17 07:47:25;;;;;;;4.70;2.90;;;;;;;7.74;78.41;99108.16;125177;1323;115084;-67
2024/04/17 07:51:05;;;;;;;;;;;;;;;;;;;;;
2024/04/17 07:59:37;;;;;;;;;;;;;;;;;;;;;
2024/04/17 08:03:34;;;;;;;2.90;1.90;;;;;;;7.94;77.10;99124.47;127478;1287;129897;-69
2024/04/17 08:07:37;;;;;;;4.10;2.60;;;;;;;7.92;77.32;99125.27;126820;1293;114812;-67
2024/04/17 08:11:37;;;;;;;;;;;;;;;;;;;;;
2024/04/17 08:15:21;;;;;;;;;;;;;;;;;;;;;
2024/04/17 08:19:34;;;;;;;;;;;;;;;;;;;;;
2024/04/17 08:23:08;;;;;;;1.50;1.10;;;;;;;7.91;75.98;99148.12;128704;1275;127727;-67
2024/04/17 08:26:51;;;;;;;1.20;0.80;;;;;;;7.89;76.18;99155.14;128798;1276;114927;-68
2024/04/17 08:30:41;;;;;;;2.10;1.20;;;;;;;7.94;76.36;99164.09;128754;1275;115162;-66
2024/04/17 08:34:43;;;;;;;1.60;1.20;;;;;;;8.06;76.16;99167.50;124548;1277;114896;-68
2024/04/17 08:38:30;;;;;;;;;;;;;;;;;;;;;
2024/04/17 08:42:17;;;;;;;;;;;;;;;;;;;;;
2024/04/17 08:46:14;;;;;;;;;;;;;;;;;;;;;
2024/04/17 08:50:11;;;;;;;;;;;;;;;;;;;;;
2024/04/17 08:54:03;;;;;;;;;;;;;;;;;;;;;
2024/04/17 08:57:59;;;;;;;2.10;1.20;;;;;;;8.36;75.18;99200.64;127660;1281;114936;-63
2024/04/17 09:02:20;;;;;;;4.90;1.80;;;;;;;8.27;75.27;99205.07;127077;1295;114930;-66
2024/04/17 09:05:42;;;;;;;3.50;1.90;;;;;;;8.21;75.05;99209.52;123160;1284;114817;-64
2024/04/17 09:09:29;;;;;;;;;;;;;;;;;;;;;
2024/04/17 09:13:49;;;;;;;;;;;;;;;;;;;;;
2024/04/17 09:17:46;;;;;;;3.90;2.30;;;;;;;8.20;75.10;99218.27;128205;1291;126657;-66
2024/04/17 09:21:20;;;;;;;4.00;2.20;;;;;;;8.26;74.90;99222.91;127644;1294;114907;-65
2024/04/17 09:25:16;;;;;;;3.10;1.90;;;;;;;8.33;74.63;99226.62;127399;1300;114917;-67
2024/04/17 09:28:54;;;;;;;3.10;2.10;;;;;;;8.35;74.74;99229.50;123754;1300;114946;-67
2024/04/17 09:32:26;;;;;;;;;;;;;;;;;;;;;
2024/04/17 09:36:19;;;;;;;;;;;;;;;;;;;;;
2024/04/17 09:40:22;;;;;;;6.60;3.10;;;;;;;8.31;75.10;99236.85;127463;1284;128703;-71
2024/04/17 09:44:14;;;;;;;;;;;;;;;;;;;;;
2024/04/17 09:48:00;;;;;;;4.40;3.10;;;;;;;8.58;75.18;99244.42;125503;1304;114965;-65
2024/04/17 09:51:54;;;;;;;3.20;2.00;;;;;;;8.63;74.86;99247.85;125614;1314;114950;-65
2024/04/17 09:55:36;;;;;;;3.70;1.80;;;;;;;8.56;74.37;99246.83;125864;1314;114822;-64
2024/04/17 09:59:28;;;;;;;;;;;;;;;;;;;;;
2024/04/17 10:03:22;;;;;;;;;;;;;;;;;;;;;
2024/04/17 10:11:31;;;;;;;;;;;;;;;;;;;;;
2024/04/17 10:15:34;;;;;;;5.00;2.10;;;;;;;9.31;72.89;99257.90;127682;1284;129824;-71
2024/04/17 10:19:29;;;;;;;;;;;;;;;;;;;;;
2024/04/17 10:23:30;;;;;;;3.70;2.40;;;;;;;9.19;72.44;99262.20;123244;1287;5408969;-68
2024/04/17 10:27:41;;;;;;;3.10;2.30;;;;;;;9.08;72.10;99267.81;127374;1289;114945;-70
2024/04/17 10:31:35;;;;;;;;;;;;;;;;;;;;;
2024/04/17 10:35:27;;;;;;;;;;;;;;;;;;;;;
2024/04/17 10:39:23;;;;;;;2.80;2.10;;;;;;;8.73;71.61;99277.02;126079;1294;129801;-62
2024/04/17 10:43:22;;;;;;;;;;;;;;;;;;;;;
2024/04/17 10:47:23;;;;;;;7.10;2.50;;;;;;;8.95;72.54;99282.48;124491;1326;114988;-63
2024/04/17 10:51:16;;;;;;;;;;;;;;;;;;;;;
2024/04/17 10:55:02;;;;;;;4.10;3.00;;;;;;;8.97;72.01;99292.88;124088;1316;115206;-71
2024/04/17 10:58:42;;;;;;;;;;;;;;;;;;;;;
2024/04/17 11:02:21;;;;;;;;;;;;;;;;;;;;;
2024/04/17 11:06:25;;;;;;;5.70;3.20;;;;;;;8.69;72.02;99302.89;123931;1317;115012;-74
2024/04/17 11:10:24;;;;;;;;;;;;;;;;;;;;;
2024/04/17 11:14:11;;;;;;;3.50;2.10;;;;;;;8.47;72.22;99306.09;124151;1311;114999;-64
2024/04/17 11:18:09;;;;;;;4.70;2.10;;;;;;;8.36;71.78;99310.98;123987;1332;129824;-64
2024/04/17 11:21:55;;;;;;;4.60;2.30;;;;;;;8.25;71.82;99316.70;124147;1335;115003;-64
2024/04/17 11:25:41;;;;;;;3.70;2.30;;;;;;;8.24;71.96;99318.02;124481;1307;114988;-64
2024/04/17 11:29:44;;;;;;;4.80;2.00;;;;;;;8.29;72.25;99317.00;124313;1308;116616;-63
2024/04/17 11:33:30;;;;;;;3.00;2.50;;;;;;;8.32;72.36;99317.40;124887;1326;114993;-63
2024/04/17 11:41:54;;;;;;;4.10;2.40;;;;;;;8.37;72.31;99328.29;126219;1294;637321;-62
2024/04/17 11:45:44;;;;;;;4.80;3.00;;;;;;;8.35;72.39;99339.96;128194;1277;129130;-61
2024/04/17 11:49:29;;;;;;;;;;;;;;;;;;;;;
2024/04/17 11:53:07;;;;;;;5.60;3.60;;;;;;;8.29;71.85;99343.67;127627;1283;114823;-62
2024/04/17 11:57:06;;;;;;;5.20;3.50;;;;;;;8.27;71.69;99347.92;123867;1285;114930;-63
2024/04/17 12:00:54;;;;;;;6.40;3.20;;;;;;;8.22;72.03;99351.41;126752;1290;114859;-63
2024/04/17 12:04:36;;;;;;;4.10;2.50;;;;;;;8.19;71.90;99356.68;125989;1298;114798;-62
2024/04/17 12:08:30;;;;;;;;;;;;;;;;;;;;;
2024/04/17 12:12:30;;;;;;;;;;;;;;;;;;;;;
2024/04/17 12:26:49;;;;;;;5.50;3.60;;;;;;;8.07;71.43;99370.71;128127;1291;128359;-62
2024/04/17 12:28:39;;;;;;;;;;;;;;;;;;;;;
2024/04/17 12:32:33;;;;;;;;;;;;;;;;;;;;;
2024/04/17 12:36:37;;;;;;;4.20;2.80;;;;;;;7.95;71.95;99381.28;126826;1290;114904;-63
2024/04/17 12:40:31;;;;;;;;;;;;;;;;;;;;;
2024/04/17 12:44:32;;;;;;;4.90;3.50;;;;;;;7.91;71.70;99379.38;125957;1317;114889;-62
2024/04/17 12:48:21;;;;;;;;;;;;;;;;;;;;;
2024/04/17 12:52:17;;;;;;;4.50;3.00;;;;;;;7.91;71.48;99381.66;125496;1299;114871;-63
2024/04/17 12:55:53;;;;;;;;;;;;;;;;;;;;;
2024/04/17 12:59:49;;;;;;;5.30;2.90;;;;;;;7.91;71.57;99384.73;124956;1323;114912;-64
2024/04/17 13:03:50;;;;;;;5.20;2.90;;;;;;;7.92;71.19;99387.70;124583;1326;114771;-61
2024/04/17 13:07:52;;;;;;;8.80;3.30;;;;;;;8.00;71.54;99385.50;125302;1305;128955;-62
2024/04/17 13:11:40;;;;;;;2.90;1.90;;;;;;;8.17;71.48;99385.42;124782;1328;114899;-63
2024/04/17 13:15:25;;;;;;;;;;;;;;;;;;;;;
2024/04/17 13:19:21;;;;;;;3.30;2.60;;;;;;;8.49;70.83;99383.37;124614;1327;115434;-61
2024/04/17 13:22:53;;;;;;;;;;;;;;;;;;;;;
2024/04/17 13:26:36;;;;;;;;;;;;;;;;;;;;;
2024/04/17 13:30:22;;;;;;;3.80;1.60;;;;;;;8.84;70.22;99373.97;125455;1300;114914;-62
2024/04/17 13:34:14;;;;;;;3.10;1.80;;;;;;;9.14;70.58;99373.29;125310;1305;114968;-62
2024/04/17 13:38:06;;;;;;;2.20;1.30;;;;;;;9.49;69.63;99371.79;125380;1315;114994;-62
2024/04/17 13:41:53;;;;;;;;;;;;;;;;;;;;;
2024/04/17 13:45:48;;;;;;;;;;;;;;;;;;;;;
2024/04/17 13:49:54;;;;;;;3.50;1.90;;;;;;;10.15;67.78;99371.98;125095;1310;114929;-62
2024/04/17 13:53:36;;;;;;;2.60;1.80;;;;;;;10.21;66.49;99369.15;125641;1302;114914;-63
2024/04/17 13:57:37;;;;;;;;;;;;;;;;;;;;;
2024/04/17 14:05:42;;;;;;;2.80;1.10;;;;;;;10.21;65.61;99367.71;126481;1289;639664;-63
2024/04/17 14:09:28;;;;;;;;;;;;;;;;;;;;;
2024/04/17 14:13:28;;;;;;;2.50;1.30;;;;;;;10.15;65.64;99373.84;129091;1277;114848;-63
2024/04/17 14:17:17;;;;;;;;;;;;;;;;;;;;;
2024/04/17 14:21:13;;;;;;;;;;;;;;;;;;;;;
2024/04/17 14:25:14;;;;;;;2.60;1.50;;;;;;;10.22;64.57;99365.51;126439;1292;114958;-64
2024/04/17 14:29:17;;;;;;;2.80;2.00;;;;;;;10.16;64.45;99365.52;126067;1316;114962;-64
2024/04/17 14:32:55;;;;;;;;;;;;;;;;;;;;;
2024/04/17 14:36:26;;;;;;;;;;;;;;;;;;;;;
2024/04/17 14:44:20;;;;;;;5.80;2.60;;;;;;;10.62;64.12;99361.19;126496;1296;638558;-64
2024/04/17 14:47:55;;;;;;;;;;;;;;;10.53;63.30;99364.30;128359;1273;129768;-63
2024/04/17 14:52:07;;;;;;;3.80;2.10;;;;;;;10.39;63.91;99368.04;128814;1286;114967;-63
2024/04/17 14:55:46;;;;;;;2.70;1.70;;;;;;;10.16;62.86;99370.16;127922;1282;115008;-62
2024/04/17 14:59:35;;;;;;;2.80;1.90;;;;;;;9.95;62.95;99368.63;123491;1280;114767;-64
2024/04/17 15:03:18;;;;;;;;;;;;;;;;;;;;;
2024/04/17 15:07:06;;;;;;;;;;;;;;;;;;;;;
2024/04/17 15:10:46;;;;;;;3.70;2.20;;;;;;;9.71;64.17;99361.17;126824;1292;129093;-62
2024/04/17 15:14:48;;;;;;;4.40;2.40;;;;;;;9.74;64.07;99359.21;126079;1296;114838;-63
2024/04/17 15:18:39;;;;;;;;;;;;;;;;;;;;;
2024/04/17 15:22:20;;;;;;;5.50;3.00;;;;;;;9.54;63.78;99363.23;123598;1334;115042;-65
2024/04/17 15:25:41;;;;;;;3.40;3.10;;;;;;;9.46;64.23;99361.23;124247;1312;114876;-63
2024/04/17 15:29:31;;;;;;;6.80;3.60;;;;;;;9.45;64.40;99365.61;124874;1329;129856;-63
2024/04/17 15:33:25;;;;;;;;;;;;;;;;;;;;;
2024/04/17 15:37:03;;;;;;;1.20;0.90;;;;;;;9.47;63.96;99369.07;123712;1335;114929;-62
2024/04/17 15:40:30;;;;;;;;;;;;;;;;;;;;;
2024/04/17 15:48:45;;;;;;;4.70;3.30;;;;;;;9.17;63.86;99372.39;126043;1292;636994;-63
2024/04/17 15:52:22;;;;;;;4.30;2.30;;;;;;;9.08;63.69;99373.98;127942;1281;128886;-62
2024/04/17 16:01:05;;;;;;;4.90;2.60;;;;;;;8.88;64.09;99375.16;125353;1312;639241;-63
2024/04/17 16:05:03;;;;;;;3.90;3.00;;;;;;;8.85;64.36;99377.63;128198;1297;128837;-63
2024/04/17 16:08:28;;;;;;;4.70;2.80;;;;;;;8.82;64.11;99371.02;127633;1297;114984;-63
2024/04/17 16:12:23;;;;;;;;;;;;;;;;;;;;;
2024/04/17 16:16:09;;;;;;;;;;;;;;;;;;;;;
2024/04/17 16:19:55;;;;;;;2.90;2.00;;;;;;;8.86;63.91;99375.10;127601;1286;114760;-62
2024/04/17 16:23:45;;;;;;;3.60;2.10;;;;;;;8.78;64.01;99376.94;127416;1297;114836;-63
2024/04/17 16:27:09;;;;;;;;;;;;;;;;;;;;;
2024/04/17 16:30:53;;;;;;;;;;;;;;;8.64;64.21;99383.11;127654;1283;114901;-62
2024/04/17 16:34:46;;;;;;;3.40;2.40;;;;;;;8.49;64.07;99385.83;127910;1280;114919;-63
2024/04/17 16:38:24;;;;;;;2.50;2.00;;;;;;;8.37;64.36;99384.89;127516;1288;114907;-63
2024/04/17 16:41:42;;;;;;;3.90;2.90;;;;;;;8.24;64.02;99389.70;127769;1300;114933;-62
2024/04/17 16:45:52;;;;;;;;;;;;;;;;;;;;;
2024/04/17 16:50:00;;;;;;;3.40;2.30;;;;;;;8.02;64.46;99396.93;127689;1285;114912;-62
2024/04/17 16:53:51;;;;;;;;;;;;;;;;;;;;;
2024/04/17 16:57:35;;;;;;;;;;;;;;;;;;;;;
2024/04/17 17:01:26;;;;;;;4.10;2.50;;;;;;;7.69;64.49;99405.44;125704;1301;114875;-63
2024/04/17 17:05:21;;;;;;;4.20;2.70;;;;;;;7.57;64.57;99410.08;125465;1317;130088;-62
2024/04/17 17:13:52;;;;;;;;;;;;;;;;;;;;;
2024/04/17 17:17:57;;;;;;;3.70;2.50;;;;;;;7.28;65.51;99424.02;128243;1285;129060;-63
2024/04/17 17:22:10;;;;;;;3.50;2.00;;;;;;;7.15;65.51;99425.36;127386;1302;114912;-65
2024/04/17 17:25:44;;;;;;;;;;;;;;;;;;;;;
2024/04/17 17:29:49;;;;;;;4.80;2.90;;;;;;;6.87;66.00;99428.67;128159;1283;116111;-62
2024/04/17 17:33:44;;;;;;;4.10;3.00;;;;;;;6.71;66.13;99437.23;126317;1311;114949;-65
2024/04/17 17:37:29;;;;;;;4.70;2.80;;;;;;;6.53;66.14;99441.45;126333;1296;130162;-64
2024/04/17 17:41:23;;;;;;;;;;;;;;;;;;;;;
2024/04/17 17:45:15;;;;;;;;;;;;;;;;;;;;;
2024/04/17 17:49:28;;;;;;;;;;;;;;;;;;;;;
2024/04/17 17:53:10;;;;;;;;;;;;;;;;;;;;;
2024/04/17 17:57:00;;;;;;;;;;;;;;;;;;;;;
2024/04/17 18:00:56;;;;;;;;;;;;;;;;;;;;;
2024/04/17 18:04:52;;;;;;;7.60;4.00;;;;;;;5.40;67.94;99477.20;123938;1333;114960;-64
2024/04/17 18:08:19;;;;;;;6.80;4.30;;;;;;;5.23;68.34;99478.95;125002;1313;115055;-64
2024/04/17 18:12:26;;;;;;;9.50;5.80;;;;;;;5.09;68.40;99486.24;125813;1301;115008;-62
2024/04/17 18:15:47;;;;;;;19.70;8.70;;;;;;;4.92;68.60;99494.72;125133;1307;128820;-62
2024/04/17 18:19:57;;;;;;;;;;;;;;;;;;;;;
2024/04/17 18:23:41;;;;;;;13.70;7.30;;;;;;;4.65;69.09;99508.30;124975;1304;114994;-63
2024/04/17 18:27:28;;;;;;;15.60;7.80;;;;;;;4.51;69.41;99508.09;124733;1326;115026;-62
2024/04/17 18:31:14;;;;;;;11.60;5.80;;;;;;;4.38;69.67;99511.59;124690;1326;115019;-62
2024/04/17 18:35:02;;;;;;;12.30;7.30;;;;;;;4.26;69.90;99512.56;124931;1324;129773;-61
2024/04/17 18:47:40;;;;;;;25.30;10.80;;;;;;;3.93;70.77;99515.84;128591;1270;128901;-64
2024/04/17 18:51:30;;;;;;;;;;;;;;;;;;;;;
2024/04/17 18:55:29;;;;;;;;;;;;;;;;;;;;;
2024/04/17 18:59:33;;;;;;;;;;;;;;;;;;;;;
2024/04/17 19:03:37;;;;;;;;;;;;;;;;;;;;;
2024/04/17 19:07:34;;;;;;;;;;;;;;;;;;;;;
2024/04/17 19:15:53;;;;;;;48.20;22.90;;;;;;;3.37;72.60;99538.55;127012;1283;636439;-64
2024/04/17 19:19:56;;;;;;;;;;;;;;;;;;;;;
2024/04/17 19:23:27;;;;;;;;;;;;;;;;;;;;;
2024/04/17 19:27:13;;;;;;;37.50;17.60;;;;;;;3.34;73.85;99544.65;126421;1295;114880;-64
2024/04/17 19:31:06;;;;;;;;;;;;;;;;;;;;;
2024/04/17 19:35:23;;;;;;;32.40;14.10;;;;;;;3.38;74.30;99548.09;125966;1298;114984;-62
2024/04/17 19:39:15;;;;;;;;;;;;;;;;;;;;;
2024/04/17 19:42:43;;;;;;;28.40;12.00;;;;;;;3.42;74.77;99554.27;124751;1311;128444;-61
2024/04/17 19:46:37;;;;;;;26.80;11.60;;;;;;;3.44;74.97;99557.92;125074;1305;114955;-61
2024/04/17 19:50:33;;;;;;;21.60;10.90;;;;;;;3.48;75.38;99564.34;124596;1327;114908;-60
2024/04/17 19:54:26;;;;;;;;;;;;;;;;;;;;;
2024/04/17 19:58:30;;;;;;;;;;;;;;;;;;;;;
2024/04/17 20:02:00;;;;;;;23.00;11.50;;;;;;;3.55;75.79;99565.88;124600;1308;128016;-62
2024/04/17 20:05:45;;;;;;;22.10;11.50;;;;;;;3.56;75.76;99569.19;124349;1311;115057;-62
2024/04/17 20:09:06;;;;;;;25.20;12.00;;;;;;;3.57;75.81;99570.92;124988;1324;114924;-64
2024/04/17 20:13:10;;;;;;;;;;;;;;;;;;;;;
2024/04/17 20:17:11;;;;;;;15.10;9.60;;;;;;;3.61;76.36;99562.66;125104;1319;115009;-63
2024/04/17 20:21:04;;;;;;;;;;;;;;;;;;;;;
2024/04/17 20:24:38;;;;;;;32.10;16.20;;;;;;;3.73;76.91;99560.32;124704;1310;114918;-63
2024/04/17 20:28:38;;;;;;;;;;;;;;;;;;;;;
2024/04/17 20:32:08;;;;;;;29.80;15.50;;;;;;;3.88;77.30;99557.39;124946;1307;116390;-63
2024/04/17 20:38:16;;;;;;;47.20;21.70;;;;;;;4.00;77.64;99560.29;126199;1292;636567;-63
2024/04/17 20:41:57;;;;;;;;;;;;;;;;;;;;;
2024/04/17 20:45:27;;;;;;;46.50;24.80;;;;;;;4.17;78.10;99557.07;127210;1300;114982;-63
2024/04/17 20:49:41;;;;;;;;;;;;;;;;;;;;;
2024/04/17 20:53:29;;;;;;;;;;;;;;;;;;;;;
2024/04/17 20:57:29;;;;;;;;;;;;;;;;;;;;;
2024/04/17 21:01:38;;;;;;;62.90;29.80;;;;;;;4.44;78.47;99567.63;124742;1329;114912;-62
2024/04/17 21:05:28;;;;;;;60.30;29.50;;;;;;;4.49;78.54;99569.02;124623;1329;128291;-63
2024/04/17 21:13:15;;;;;;;52.70;25.80;;;;;;;4.58;78.39;99570.98;126330;1295;637069;-62
2024/04/17 21:17:00;;;;;;;;;;;;;;;;;;;;;
2024/04/17 21:20:16;;;;;;;53.10;26.20;;;;;;;4.60;78.61;99584.88;128218;1296;114903;-63
2024/04/17 21:23:58;;;;;;;;;;;;;;;;;;;;;
2024/04/17 21:27:43;;;;;;;;;;;;;;;;;;;;;
2024/04/17 21:31:47;;;;;;;48.80;24.30;;;;;;;4.60;78.47;99594.27;128554;1289;116484;-63
2024/04/17 21:35:50;;;;;;;61.90;30.30;;;;;;;4.59;78.49;99600.48;128681;1273;128570;-63
2024/04/17 21:39:21;;;;;;;;;;;;;;;;;;;;;
2024/04/17 21:43:12;;;;;;;;;;;;;;;;;;;;;
2024/04/17 21:47:04;;;;;;;50.20;26.70;;;;;;;4.61;78.88;99599.73;128671;1291;114897;-63
2024/04/17 21:51:06;;;;;;;47.00;25.00;;;;;;;4.61;78.95;99599.73;128250;1280;114887;-64
2024/04/17 21:55:08;;;;;;;45.40;22.70;;;;;;;4.61;79.05;99601.30;128255;1278;128770;-64
2024/04/17 21:59:00;;;;;;;44.20;22.60;;;;;;;4.61;78.97;99604.67;127419;1303;114925;-63
2024/04/17 22:02:53;;;;;;;40.90;19.70;;;;;;;4.59;78.90;99604.55;127580;1303;114867;-64
2024/04/17 22:06:56;;;;;;;42.90;22.60;;;;;;;4.57;79.00;99600.02;127542;1303;114853;-64
2024/04/17 22:10:56;;;;;;;;;;;;;;;;;;;;;
2024/04/17 22:14:51;;;;;;;40.10;20.90;;;;;;;4.56;79.30;99603.77;125949;1299;129940;-64
2024/04/17 22:18:44;;;;;;;;;;;;;;;;;;;;;
2024/04/17 22:27:14;;;;;;;44.80;22.10;;;;;;;4.47;79.09;99612.42;125867;1299;639127;-61
2024/04/17 22:31:15;;;;;;;39.30;19.20;;;;;;;4.41;79.34;99619.33;128352;1276;129173;-64
2024/04/17 22:39:19;;;;;;;;;;;;;;;;;;;;;
2024/04/17 22:43:08;;;;;;;38.60;18.70;;;;;;;4.36;79.57;99619.34;127396;1283;114964;-62
2024/04/17 22:46:58;;;;;;;33.30;17.50;;;;;;;4.35;79.57;99619.73;127067;1281;114902;-62
2024/04/17 22:51:00;;;;;;;30.20;16.20;;;;;;;4.34;79.76;99619.39;126603;1292;114941;-63
2024/04/17 22:59:21;;;;;;;40.50;22.00;;;;;;;4.36;79.51;99611.21;126203;1294;636083;-63
2024/04/17 23:07:31;;;;;;;54.60;23.20;;;;;;;4.26;79.63;99608.88;126656;1291;115164;-64
2024/04/17 23:11:27;;;;;;;;;;;;;;;;;;;;;
2024/04/17 23:15:19;;;;;;;33.50;16.10;;;;;;;4.14;79.55;99616.58;124837;1328;115284;-63
2024/04/17 23:19:18;;;;;;;;;;;;;;;;;;;;;
2024/04/17 23:27:43;;;;;;;27.60;15.40;;;;;;;4.05;80.10;99612.98;126346;1294;635192;-63
2024/04/17 23:31:45;;;;;;;24.80;15.60;;;;;;;4.02;80.31;99613.59;129105;1289;127955;-65
2024/04/17 23:35:44;;;;;;;;;;;;;;;;;;;;;
2024/04/17 23:39:47;;;;;;;25.40;14.10;;;;;;;4.05;80.44;99608.73;123844;1283;5433883;-62
2024/04/17 23:43:49;;;;;;;24.90;12.90;;;;;;;4.06;80.50;99606.39;125919;1298;114940;-63
2024/04/17 23:47:50;;;;;;;21.90;12.50;;;;;;;4.06;80.48;99603.39;125450;1320;114845;-63
2024/04/17 23:51:49;;;;;;;;;;;;;;;;;;;;;
2024/04/17 23:56:05;;;;;;;20.60;13.00;;;;;;;4.00;80.16;99600.06;126062;1299;636866;-63
